sensor_id;sensor_type;location;lat;lon;timestamp;pressure;altitude;pressure_sealevel;temperature;humidity
7760;BME280;3924;48.830;9.262;2023-04-26T00:01:35;98649.91;;;7.43;80.17
7760;BME280;3924;48.830;9.262;2023-04-26T00:04:21;98658.00;;;7.43;80.14
7760;BME280;3924;48.830;9.262;2023-04-26T00:10:45;98638.81;;;7.34;80.29
7760;BME280;3924;48.830;9.262;2023-04-26T00:13:14;98648.81;;;7.38;80.29
7760;BME280;3924;48.830;9.262;2023-04-26T00:15:47;98647.19;;;7.37;80.01
7760;BME280;3924;48.830;9.262;2023-04-26T00:18:26;98643.97;;;7.35;80.23
7760;BME280;3924;48.830;9.262;2023-04-26T00:25:06;98652.56;;;7.32;80.37
7760;BME280;3924;48.830;9.262;2023-04-26T00:28:23;98645.84;;;7.30;80.20
7760;BME280;3924;48.830;9.262;2023-04-26T00:35:01;98651.75;;;7.27;80.35
7760;BME280;3924;48.830;9.262;2023-04-26T00:37:52;98647.72;;;7.24;80.36
7760;BME280;3924;48.830;9.262;2023-04-26T00:40:19;98655.28;;;7.22;80.35
7760;BME280;3924;48.830;9.262;2023-04-26T00:42:45;98655.78;;;7.19;80.33
7760;BME280;3924;48.830;9.262;2023-04-26T00:45:12;98657.44;;;7.15;80.27
7760;BME280;3924;48.830;9.262;2023-04-26T00:47:39;98653.63;;;7.11;80.39
7760;BME280;3924;48.830;9.262;2023-04-26T00:50:06;98656.06;;;7.07;80.46
7760;BME280;3924;48.830;9.262;2023-04-26T00:52:33;98658.47;;;7.04;80.52
7760;BME280;3924;48.830;9.262;2023-04-26T00:55:01;98660.06;;;7.00;80.77
7760;BME280;3924;48.830;9.262;2023-04-26T00:57:28;98659.53;;;6.98;80.65
7760;BME280;3924;48.830;9.262;2023-04-26T00:59:54;98660.63;;;6.97;80.74
7760;BME280;3924;48.830;9.262;2023-04-26T01:02:21;98660.59;;;6.92;80.78
7760;BME280;3924;48.830;9.262;2023-04-26T01:04:48;98662.22;;;6.93;80.62
7760;BME280;3924;48.830;9.262;2023-04-26T01:07:14;98657.91;;;6.92;80.93
7760;BME280;3924;48.830;9.262;2023-04-26T01:09:42;98658.19;;;6.90;80.68
7760;BME280;3924;48.830;9.262;2023-04-26T01:12:10;98661.13;;;6.89;80.49
7760;BME280;3924;48.830;9.262;2023-04-26T01:14:36;98660.59;;;6.87;80.72
7760;BME280;3924;48.830;9.262;2023-04-26T01:17:04;98662.72;;;6.84;80.71
7760;BME280;3924;48.830;9.262;2023-04-26T01:19:31;98668.66;;;6.81;80.83
7760;BME280;3924;48.830;9.262;2023-04-26T01:21:58;98677.81;;;6.80;80.88
7760;BME280;3924;48.830;9.262;2023-04-26T01:24:24;98667.03;;;6.75;80.72
7760;BME280;3924;48.830;9.262;2023-04-26T01:26:51;98669.19;;;6.73;81.17
7760;BME280;3924;48.830;9.262;2023-04-26T01:29:20;98664.03;;;6.72;81.14
7760;BME280;3924;48.830;9.262;2023-04-26T01:31:47;98665.38;;;6.69;81.16
7760;BME280;3924;48.830;9.262;2023-04-26T01:34:14;98668.88;;;6.70;81.01
7760;BME280;3924;48.830;9.262;2023-04-26T01:36:40;98660.28;;;6.68;81.34
7760;BME280;3924;48.830;9.262;2023-04-26T01:39:07;98657.84;;;6.66;81.41
7760;BME280;3924;48.830;9.262;2023-04-26T01:41:34;98658.91;;;6.65;81.02
7760;BME280;3924;48.830;9.262;2023-04-26T01:44:01;98662.13;;;6.62;81.29
7760;BME280;3924;48.830;9.262;2023-04-26T01:46:27;98662.38;;;6.55;81.33
7760;BME280;3924;48.830;9.262;2023-04-26T01:48:54;98658.56;;;6.51;81.21
7760;BME280;3924;48.830;9.262;2023-04-26T01:51:20;98657.53;;;6.52;81.25
7760;BME280;3924;48.830;9.262;2023-04-26T01:53:47;98660.75;;;6.54;81.41
7760;BME280;3924;48.830;9.262;2023-04-26T01:56:13;98662.69;;;6.59;81.35
7760;BME280;3924;48.830;9.262;2023-04-26T01:58:39;98658.66;;;6.67;81.47
7760;BME280;3924;48.830;9.262;2023-04-26T02:01:07;98658.91;;;6.70;81.36
7760;BME280;3924;48.830;9.262;2023-04-26T02:03:35;98661.91;;;6.79;81.37
7760;BME280;3924;48.830;9.262;2023-04-26T02:06:02;98655.72;;;6.78;81.40
7760;BME280;3924;48.830;9.262;2023-04-26T02:08:28;98663.00;;;6.83;81.33
7760;BME280;3924;48.830;9.262;2023-04-26T02:10:55;98669.19;;;6.83;81.47
7760;BME280;3924;48.830;9.262;2023-04-26T02:13:21;98663.28;;;6.81;81.59
7760;BME280;3924;48.830;9.262;2023-04-26T02:15:48;98660.06;;;6.79;81.64
7760;BME280;3924;48.830;9.262;2023-04-26T02:18:16;98656.78;;;6.77;81.50
7760;BME280;3924;48.830;9.262;2023-04-26T02:20:43;98661.09;;;6.73;81.58
7760;BME280;3924;48.830;9.262;2023-04-26T02:23:11;98658.41;;;6.73;81.92
7760;BME280;3924;48.830;9.262;2023-04-26T02:25:38;98658.94;;;6.75;81.68
7760;BME280;3924;48.830;9.262;2023-04-26T02:28:05;98662.97;;;6.78;81.61
7760;BME280;3924;48.830;9.262;2023-04-26T02:30:31;98659.22;;;6.79;81.53
7760;BME280;3924;48.830;9.262;2023-04-26T02:32:58;98658.69;;;6.77;81.62
7760;BME280;3924;48.830;9.262;2023-04-26T02:35:25;98648.16;;;6.75;81.78
7760;BME280;3924;48.830;9.262;2023-04-26T02:37:52;98653.03;;;6.73;81.78
7760;BME280;3924;48.830;9.262;2023-04-26T02:40:18;98663.00;;;6.73;82.03
7760;BME280;3924;48.830;9.262;2023-04-26T02:42:45;98660.53;;;6.71;81.80
7760;BME280;3924;48.830;9.262;2023-04-26T02:45:11;98665.13;;;6.71;82.10
7760;BME280;3924;48.830;9.262;2023-04-26T02:47:38;98665.66;;;6.68;81.97
7760;BME280;3924;48.830;9.262;2023-04-26T02:50:06;98671.03;;;6.68;81.94
7760;BME280;3924;48.830;9.262;2023-04-26T02:52:34;98662.16;;;6.67;82.19
7760;BME280;3924;48.830;9.262;2023-04-26T02:55:01;98662.69;;;6.69;81.95
7760;BME280;3924;48.830;9.262;2023-04-26T02:57:30;98662.97;;;6.68;82.15
7760;BME280;3924;48.830;9.262;2023-04-26T02:59:57;98665.66;;;6.68;82.01
7760;BME280;3924;48.830;9.262;2023-04-26T03:02:23;98667.53;;;6.72;82.08
7760;BME280;3924;48.830;9.262;2023-04-26T03:04:50;98666.47;;;6.68;82.09
7760;BME280;3924;48.830;9.262;2023-04-26T03:07:17;98667.81;;;6.66;82.25
7760;BME280;3924;48.830;9.262;2023-04-26T03:09:43;98666.97;;;6.65;81.98
7760;BME280;3924;48.830;9.262;2023-04-26T03:12:11;98669.94;;;6.64;82.22
7760;BME280;3924;48.830;9.262;2023-04-26T03:14:37;98666.19;;;6.60;82.06
7760;BME280;3924;48.830;9.262;2023-04-26T03:17:04;98656.72;;;6.57;82.08
7760;BME280;3924;48.830;9.262;2023-04-26T03:19:31;98664.78;;;6.57;82.11
7760;BME280;3924;48.830;9.262;2023-04-26T03:21:58;98668.56;;;6.56;82.20
7760;BME280;3924;48.830;9.262;2023-04-26T03:24:24;98668.84;;;6.54;82.14
7760;BME280;3924;48.830;9.262;2023-04-26T03:26:50;98672.03;;;6.51;82.27
7760;BME280;3924;48.830;9.262;2023-04-26T03:29:17;98667.47;;;6.47;82.10
7760;BME280;3924;48.830;9.262;2023-04-26T03:31:44;98673.34;;;6.44;82.43
7760;BME280;3924;48.830;9.262;2023-04-26T03:34:10;98665.81;;;6.41;82.32
7760;BME280;3924;48.830;9.262;2023-04-26T03:36:37;98670.91;;;6.37;82.28
7760;BME280;3924;48.830;9.262;2023-04-26T03:39:03;98673.88;;;6.36;82.53
7760;BME280;3924;48.830;9.262;2023-04-26T03:41:31;98668.47;;;6.36;82.37
7760;BME280;3924;48.830;9.262;2023-04-26T03:43:58;98670.38;;;6.35;82.51
7760;BME280;3924;48.830;9.262;2023-04-26T03:46:25;98661.72;;;6.28;82.44
7760;BME280;3924;48.830;9.262;2023-04-26T03:48:51;98659.28;;;6.26;82.55
7760;BME280;3924;48.830;9.262;2023-04-26T03:51:18;98668.44;;;6.25;82.56
7760;BME280;3924;48.830;9.262;2023-04-26T03:53:45;98667.88;;;6.23;82.71
7760;BME280;3924;48.830;9.262;2023-04-26T03:56:13;98668.09;;;6.17;82.62
7760;BME280;3924;48.830;9.262;2023-04-26T03:58:40;98669.19;;;6.16;82.66
7760;BME280;3924;48.830;9.262;2023-04-26T04:01:07;98669.72;;;6.13;82.75
7760;BME280;3924;48.830;9.262;2023-04-26T04:03:33;98672.63;;;6.06;82.61
7760;BME280;3924;48.830;9.262;2023-04-26T04:06:02;98669.38;;;5.99;82.73
7760;BME280;3924;48.830;9.262;2023-04-26T04:08:29;98673.63;;;5.95;82.79
7760;BME280;3924;48.830;9.262;2023-04-26T04:10:55;98669.59;;;5.92;82.87
7760;BME280;3924;48.830;9.262;2023-04-26T04:13:22;98673.34;;;5.91;82.82
7760;BME280;3924;48.830;9.262;2023-04-26T04:15:48;98668.78;;;5.92;82.85
7760;BME280;3924;48.830;9.262;2023-04-26T04:18:15;98668.78;;;5.92;82.78
7760;BME280;3924;48.830;9.262;2023-04-26T04:20:42;98674.41;;;5.90;83.16
7760;BME280;3924;48.830;9.262;2023-04-26T04:23:08;98673.56;;;5.90;82.91
7760;BME280;3924;48.830;9.262;2023-04-26T04:25:35;98671.94;;;5.89;82.81
7760;BME280;3924;48.830;9.262;2023-04-26T04:28:01;98663.88;;;5.89;83.11
7760;BME280;3924;48.830;9.262;2023-04-26T04:30:29;98667.09;;;5.86;82.84
7760;BME280;3924;48.830;9.262;2023-04-26T04:32:56;98670.84;;;5.85;83.21
7760;BME280;3924;48.830;9.262;2023-04-26T04:35:25;98669.78;;;5.86;82.99
7760;BME280;3924;48.830;9.262;2023-04-26T04:37:55;98675.97;;;5.86;83.14
7760;BME280;3924;48.830;9.262;2023-04-26T04:40:23;98679.22;;;5.88;83.27
7760;BME280;3924;48.830;9.262;2023-04-26T04:42:50;98683.31;;;5.91;82.91
7760;BME280;3924;48.830;9.262;2023-04-26T04:45:17;98680.63;;;5.91;83.05
7760;BME280;3924;48.830;9.262;2023-04-26T04:47:43;98681.16;;;5.93;82.86
7760;BME280;3924;48.830;9.262;2023-04-26T04:50:10;98682.81;;;5.99;83.15
7760;BME280;3924;48.830;9.262;2023-04-26T04:52:37;98681.53;;;6.07;83.02
7760;BME280;3924;48.830;9.262;2023-04-26T04:55:04;98687.22;;;6.15;83.06
7760;BME280;3924;48.830;9.262;2023-04-26T04:57:30;98691.03;;;6.24;83.11
7760;BME280;3924;48.830;9.262;2023-04-26T04:59:57;98683.56;;;6.32;82.94
7760;BME280;3924;48.830;9.262;2023-04-26T05:02:24;98699.22;;;6.45;82.98
7760;BME280;3924;48.830;9.262;2023-04-26T05:04:51;98701.44;;;6.53;82.69
7760;BME280;3924;48.830;9.262;2023-04-26T05:07:18;98700.38;;;6.64;82.65
7760;BME280;3924;48.830;9.262;2023-04-26T05:09:45;98711.72;;;6.71;82.78
7760;BME280;3924;48.830;9.262;2023-04-26T05:12:11;98712.31;;;6.83;82.48
7760;BME280;3924;48.830;9.262;2023-04-26T05:14:38;98710.22;;;6.96;82.17
7760;BME280;3924;48.830;9.262;2023-04-26T05:17:06;98711.78;;;6.92;81.97
7760;BME280;3924;48.830;9.262;2023-04-26T05:19:32;98720.16;;;6.90;82.06
7760;BME280;3924;48.830;9.262;2023-04-26T05:21:59;98719.88;;;6.87;82.19
7760;BME280;3924;48.830;9.262;2023-04-26T05:24:28;98712.38;;;6.94;82.33
7760;BME280;3924;48.830;9.262;2023-04-26T05:26:57;98715.34;;;7.02;82.28
7760;BME280;3924;48.830;9.262;2023-04-26T05:29:28;98718.31;;;7.11;82.03
7760;BME280;3924;48.830;9.262;2023-04-26T05:31:55;98728.84;;;7.18;81.95
7760;BME280;3924;48.830;9.262;2023-04-26T05:34:22;98725.09;;;7.19;81.93
7760;BME280;3924;48.830;9.262;2023-04-26T05:36:49;98730.19;;;7.20;81.77
7760;BME280;3924;48.830;9.262;2023-04-26T05:39:16;98733.44;;;7.17;81.92
7760;BME280;3924;48.830;9.262;2023-04-26T05:41:44;98730.72;;;7.02;81.69
7760;BME280;3924;48.830;9.262;2023-04-26T05:44:12;98734.47;;;6.96;82.06
7760;BME280;3924;48.830;9.262;2023-04-26T05:46:38;98737.66;;;6.93;81.98
7760;BME280;3924;48.830;9.262;2023-04-26T05:49:05;98735.53;;;6.95;81.81
7760;BME280;3924;48.830;9.262;2023-04-26T05:51:32;98736.88;;;6.97;81.80
7760;BME280;3924;48.830;9.262;2023-04-26T05:53:58;98745.25;;;7.01;81.48
7760;BME280;3924;48.830;9.262;2023-04-26T05:56:25;98738.81;;;7.07;81.62
7760;BME280;3924;48.830;9.262;2023-04-26T05:58:51;98740.72;;;7.17;81.57
7760;BME280;3924;48.830;9.262;2023-04-26T06:01:18;98746.41;;;7.25;81.59
7760;BME280;3924;48.830;9.262;2023-04-26T06:03:45;98744.81;;;7.34;81.34
7760;BME280;3924;48.830;9.262;2023-04-26T06:06:12;98739.47;;;7.80;81.17
7760;BME280;3924;48.830;9.262;2023-04-26T06:08:38;98746.44;;;8.47;79.65
7760;BME280;3924;48.830;9.262;2023-04-26T06:11:05;98740.97;;;8.73;79.33
7760;BME280;3924;48.830;9.262;2023-04-26T06:13:31;98741.78;;;8.79;79.61
7760;BME280;3924;48.830;9.262;2023-04-26T06:15:58;98740.97;;;8.68;79.27
7760;BME280;3924;48.830;9.262;2023-04-26T06:18:25;98740.75;;;8.54;79.55
7760;BME280;3924;48.830;9.262;2023-04-26T06:20:51;98744.31;;;8.39;79.55
7760;BME280;3924;48.830;9.262;2023-04-26T06:23:17;98749.44;;;8.36;79.77
7760;BME280;3924;48.830;9.262;2023-04-26T06:25:45;98742.38;;;8.35;79.54
7760;BME280;3924;48.830;9.262;2023-04-26T06:28:12;98744.84;;;8.36;79.40
7760;BME280;3924;48.830;9.262;2023-04-26T06:30:38;98744.59;;;8.38;79.62
7760;BME280;3924;48.830;9.262;2023-04-26T06:33:05;98750.22;;;8.36;79.36
7760;BME280;3924;48.830;9.262;2023-04-26T06:35:31;98748.63;;;8.35;79.36
7760;BME280;3924;48.830;9.262;2023-04-26T06:37:58;98759.94;;;8.42;79.26
7760;BME280;3924;48.830;9.262;2023-04-26T06:40:24;98752.91;;;8.57;79.10
7760;BME280;3924;48.830;9.262;2023-04-26T06:42:51;98759.63;;;8.69;78.86
7760;BME280;3924;48.830;9.262;2023-04-26T06:45:17;98759.03;;;8.83;78.55
7760;BME280;3924;48.830;9.262;2023-04-26T06:47:44;98752.00;;;8.87;78.35
7760;BME280;3924;48.830;9.262;2023-04-26T06:50:11;98757.88;;;8.99;78.21
7760;BME280;3924;48.830;9.262;2023-04-26T06:52:38;98762.38;;;9.19;78.05
7760;BME280;3924;48.830;9.262;2023-04-26T06:55:04;98755.56;;;9.31;77.48
7760;BME280;3924;48.830;9.262;2023-04-26T06:57:33;98751.53;;;9.29;77.57
7760;BME280;3924;48.830;9.262;2023-04-26T06:59:59;98752.06;;;9.31;77.26
7760;BME280;3924;48.830;9.262;2023-04-26T07:02:27;98760.47;;;9.24;77.37
7760;BME280;3924;48.830;9.262;2023-04-26T07:04:53;98754.72;;;9.41;76.96
7760;BME280;3924;48.830;9.262;2023-04-26T07:07:21;98752.63;;;9.67;76.64
7760;BME280;3924;48.830;9.262;2023-04-26T07:09:48;98743.03;;;10.14;75.15
7760;BME280;3924;48.830;9.262;2023-04-26T07:12:14;98735.56;;;10.35;74.10
7760;BME280;3924;48.830;9.262;2023-04-26T07:14:41;98741.75;;;10.88;73.30
7760;BME280;3924;48.830;9.262;2023-04-26T07:17:09;98739.09;;;11.45;72.18
7760;BME280;3924;48.830;9.262;2023-04-26T07:19:35;98737.56;;;11.76;71.46
7760;BME280;3924;48.830;9.262;2023-04-26T07:22:02;98732.44;;;12.08;70.88
7760;BME280;3924;48.830;9.262;2023-04-26T07:24:29;98728.47;;;12.19;70.24
7760;BME280;3924;48.830;9.262;2023-04-26T07:26:56;98726.47;;;12.24;70.20
7760;BME280;3924;48.830;9.262;2023-04-26T07:29:23;98731.53;;;11.98;70.89
7760;BME280;3924;48.830;9.262;2023-04-26T07:31:49;98729.22;;;11.54;71.68
7760;BME280;3924;48.830;9.262;2023-04-26T07:34:16;98732.28;;;11.29;71.70
7760;BME280;3924;48.830;9.262;2023-04-26T07:36:42;98733.25;;;11.19;71.94
7760;BME280;3924;48.830;9.262;2023-04-26T07:39:08;98736.53;;;11.16;71.85
7760;BME280;3924;48.830;9.262;2023-04-26T07:41:36;98723.69;;;11.03;71.74
7760;BME280;3924;48.830;9.262;2023-04-26T07:44:02;98728.50;;;10.87;71.92
7760;BME280;3924;48.830;9.262;2023-04-26T07:46:32;98727.72;;;11.05;71.55
7760;BME280;3924;48.830;9.262;2023-04-26T07:48:58;98729.50;;;11.15;70.98
7760;BME280;3924;48.830;9.262;2023-04-26T07:51:24;98725.06;;;11.00;70.94
7760;BME280;3924;48.830;9.262;2023-04-26T07:53:52;98721.56;;;11.00;70.73
7760;BME280;3924;48.830;9.262;2023-04-26T07:56:21;98723.47;;;11.18;70.49
7760;BME280;3924;48.830;9.262;2023-04-26T07:58:49;98725.59;;;11.21;70.20
7760;BME280;3924;48.830;9.262;2023-04-26T08:01:15;98724.44;;;11.27;70.08
7760;BME280;3924;48.830;9.262;2023-04-26T08:03:42;98730.69;;;11.28;69.69
7760;BME280;3924;48.830;9.262;2023-04-26T08:06:09;98725.38;;;11.17;69.51
7760;BME280;3924;48.830;9.262;2023-04-26T08:08:36;98728.91;;;11.37;68.98
7760;BME280;3924;48.830;9.262;2023-04-26T08:11:10;98733.25;;;11.57;68.49
7760;BME280;3924;48.830;9.262;2023-04-26T08:13:37;98736.31;;;11.69;68.21
7760;BME280;3924;48.830;9.262;2023-04-26T08:16:04;98732.59;;;11.84;67.66
7760;BME280;3924;48.830;9.262;2023-04-26T08:18:31;98734.84;;;11.76;67.53
7760;BME280;3924;48.830;9.262;2023-04-26T08:20:57;98740.84;;;11.92;66.91
7760;BME280;3924;48.830;9.262;2023-04-26T08:23:24;98733.63;;;11.88;66.99
7760;BME280;3924;48.830;9.262;2023-04-26T08:25:50;98741.81;;;11.64;67.00
7760;BME280;3924;48.830;9.262;2023-04-26T08:28:17;98740.41;;;11.66;66.76
7760;BME280;3924;48.830;9.262;2023-04-26T08:30:43;98737.03;;;11.93;66.19
7760;BME280;3924;48.830;9.262;2023-04-26T08:33:10;98742.84;;;11.87;65.87
7760;BME280;3924;48.830;9.262;2023-04-26T08:35:37;98739.41;;;11.62;66.28
7760;BME280;3924;48.830;9.262;2023-04-26T08:38:03;98730.50;;;11.75;65.99
7760;BME280;3924;48.830;9.262;2023-04-26T08:40:29;98730.84;;;12.07;65.15
7760;BME280;3924;48.830;9.262;2023-04-26T08:42:56;98733.72;;;12.29;64.50
7760;BME280;3924;48.830;9.262;2023-04-26T08:45:23;98738.72;;;12.08;64.53
7760;BME280;3924;48.830;9.262;2023-04-26T08:47:52;98735.72;;;11.91;64.65
7760;BME280;3924;48.830;9.262;2023-04-26T08:50:20;98745.09;;;11.79;64.58
7760;BME280;3924;48.830;9.262;2023-04-26T08:52:49;98746.09;;;11.89;64.50
7760;BME280;3924;48.830;9.262;2023-04-26T08:55:17;98745.78;;;11.71;64.16
7760;BME280;3924;48.830;9.262;2023-04-26T08:57:46;98741.88;;;11.77;63.82
7760;BME280;3924;48.830;9.262;2023-04-26T09:00:14;98736.56;;;12.05;63.56
7760;BME280;3924;48.830;9.262;2023-04-26T09:02:45;98732.13;;;11.95;63.23
7760;BME280;3924;48.830;9.262;2023-04-26T09:05:12;98735.28;;;12.02;63.22
7760;BME280;3924;48.830;9.262;2023-04-26T09:07:41;98733.44;;;12.30;62.53
7760;BME280;3924;48.830;9.262;2023-04-26T09:10:10;98731.91;;;12.24;62.49
7760;BME280;3924;48.830;9.262;2023-04-26T09:12:37;98736.53;;;12.24;62.36
7760;BME280;3924;48.830;9.262;2023-04-26T09:15:07;98739.91;;;12.02;62.52
7760;BME280;3924;48.830;9.262;2023-04-26T09:17:36;98732.59;;;11.84;62.73
7760;BME280;3924;48.830;9.262;2023-04-26T09:22:50;98733.22;;;11.75;62.56
7760;BME280;3924;48.830;9.262;2023-04-26T09:25:25;98736.38;;;11.64;62.52
7760;BME280;3924;48.830;9.262;2023-04-26T09:27:52;98733.31;;;11.51;62.35
7760;BME280;3924;48.830;9.262;2023-04-26T09:30:20;98733.47;;;11.60;62.25
7760;BME280;3924;48.830;9.262;2023-04-26T09:32:50;98724.06;;;11.52;62.09
7760;BME280;3924;48.830;9.262;2023-04-26T09:37:59;98722.50;;;12.03;60.69
7760;BME280;3924;48.830;9.262;2023-04-26T09:40:47;98721.81;;;12.11;60.21
7760;BME280;3924;48.830;9.262;2023-04-26T09:43:17;98712.84;;;12.11;60.23
7760;BME280;3924;48.830;9.262;2023-04-26T09:45:46;98705.91;;;12.18;59.74
7760;BME280;3924;48.830;9.262;2023-04-26T09:48:16;98711.59;;;12.49;59.14
7760;BME280;3924;48.830;9.262;2023-04-26T09:50:44;98707.16;;;12.53;58.74
7760;BME280;3924;48.830;9.262;2023-04-26T09:55:54;98707.22;;;12.35;58.57
7760;BME280;3924;48.830;9.262;2023-04-26T09:58:21;98717.25;;;12.07;58.88
7760;BME280;3924;48.830;9.262;2023-04-26T10:00:51;98718.03;;;11.74;59.56
7760;BME280;3924;48.830;9.262;2023-04-26T10:03:21;98719.47;;;11.53;59.38
7760;BME280;3924;48.830;9.262;2023-04-26T10:05:50;98727.38;;;11.49;59.28
7760;BME280;3924;48.830;9.262;2023-04-26T10:08:17;98722.19;;;11.53;59.28
7760;BME280;3924;48.830;9.262;2023-04-26T10:10:44;98719.78;;;11.65;58.87
7760;BME280;3924;48.830;9.262;2023-04-26T10:13:11;98713.63;;;11.60;58.54
7760;BME280;3924;48.830;9.262;2023-04-26T10:15:40;98711.75;;;11.60;58.53
7760;BME280;3924;48.830;9.262;2023-04-26T10:18:07;98706.22;;;11.65;58.49
7760;BME280;3924;48.830;9.262;2023-04-26T10:20:39;98707.69;;;11.76;58.22
7760;BME280;3924;48.830;9.262;2023-04-26T10:23:12;98700.34;;;11.77;58.09
7760;BME280;3924;48.830;9.262;2023-04-26T10:25:42;98703.00;;;11.82;57.94
7760;BME280;3924;48.830;9.262;2023-04-26T10:28:09;98703.72;;;11.88;57.67
7760;BME280;3924;48.830;9.262;2023-04-26T10:30:53;98692.34;;;11.86;57.63
7760;BME280;3924;48.830;9.262;2023-04-26T10:33:21;98685.38;;;12.26;56.80
7760;BME280;3924;48.830;9.262;2023-04-26T10:36:00;98695.47;;;12.53;55.94
7760;BME280;3924;48.830;9.262;2023-04-26T10:38:27;98697.69;;;12.78;55.72
7760;BME280;3924;48.830;9.262;2023-04-26T10:40:54;98698.22;;;13.30;54.71
7760;BME280;3924;48.830;9.262;2023-04-26T10:43:28;98690.91;;;13.53;54.28
7760;BME280;3924;48.830;9.262;2023-04-26T10:45:55;98683.53;;;13.76;53.90
7760;BME280;3924;48.830;9.262;2023-04-26T10:48:29;98681.59;;;13.99;53.23
7760;BME280;3924;48.830;9.262;2023-04-26T10:59:06;98669.50;;;13.60;53.63
7760;BME280;3924;48.830;9.262;2023-04-26T11:01:53;98680.53;;;13.05;54.14
7760;BME280;3924;48.830;9.262;2023-04-26T11:04:20;98677.72;;;12.83;54.49
7760;BME280;3924;48.830;9.262;2023-04-26T11:06:55;98673.00;;;12.61;54.61
7760;BME280;3924;48.830;9.262;2023-04-26T11:09:39;98669.28;;;12.71;54.74
7760;BME280;3924;48.830;9.262;2023-04-26T11:12:10;98668.56;;;12.93;54.10
7760;BME280;3924;48.830;9.262;2023-04-26T11:14:38;98664.09;;;12.97;53.73
7760;BME280;3924;48.830;9.262;2023-04-26T11:17:09;98663.38;;;13.19;53.48
7760;BME280;3924;48.830;9.262;2023-04-26T11:19:35;98660.38;;;13.06;53.12
7760;BME280;3924;48.830;9.262;2023-04-26T11:22:05;98659.31;;;12.80;53.40
7760;BME280;3924;48.830;9.262;2023-04-26T11:24:33;98664.03;;;12.74;53.59
7760;BME280;3924;48.830;9.262;2023-04-26T11:27:08;98656.59;;;12.66;53.48
7760;BME280;3924;48.830;9.262;2023-04-26T11:29:35;98644.91;;;12.52;53.54
7760;BME280;3924;48.830;9.262;2023-04-26T11:32:04;98640.03;;;12.90;53.11
7760;BME280;3924;48.830;9.262;2023-04-26T11:34:35;98637.09;;;13.36;51.99
7760;BME280;3924;48.830;9.262;2023-04-26T11:37:02;98632.25;;;13.78;51.27
7760;BME280;3924;48.830;9.262;2023-04-26T11:39:35;98629.97;;;13.94;50.95
7760;BME280;3924;48.830;9.262;2023-04-26T11:42:07;98634.47;;;13.99;50.48
7760;BME280;3924;48.830;9.262;2023-04-26T11:44:34;98619.50;;;13.65;51.05
7760;BME280;3924;48.830;9.262;2023-04-26T11:47:01;98619.28;;;13.75;50.97
7760;BME280;3924;48.830;9.262;2023-04-26T11:49:31;98618.66;;;13.56;50.94
7760;BME280;3924;48.830;9.262;2023-04-26T11:51:58;98609.25;;;13.62;50.85
7760;BME280;3924;48.830;9.262;2023-04-26T11:54:29;98602.84;;;13.89;50.74
7760;BME280;3924;48.830;9.262;2023-04-26T11:56:57;98613.34;;;14.13;49.98
7760;BME280;3924;48.830;9.262;2023-04-26T11:59:25;98601.28;;;14.05;49.90
7760;BME280;3924;48.830;9.262;2023-04-26T12:01:52;98600.41;;;14.18;49.59
7760;BME280;3924;48.830;9.262;2023-04-26T12:04:25;98602.84;;;14.29;49.39
7760;BME280;3924;48.830;9.262;2023-04-26T12:06:56;98594.75;;;14.55;48.76
7760;BME280;3924;48.830;9.262;2023-04-26T12:09:27;98607.78;;;14.75;48.53
7760;BME280;3924;48.830;9.262;2023-04-26T12:11:59;98600.06;;;14.68;48.26
7760;BME280;3924;48.830;9.262;2023-04-26T12:14:33;98602.84;;;14.29;49.00
7760;BME280;3924;48.830;9.262;2023-04-26T12:17:00;98603.22;;;14.05;49.20
7760;BME280;3924;48.830;9.262;2023-04-26T12:19:32;98600.16;;;13.98;49.32
7760;BME280;3924;48.830;9.262;2023-04-26T12:21:59;98599.03;;;13.99;49.14
7760;BME280;3924;48.830;9.262;2023-04-26T12:24:28;98601.50;;;14.09;49.11
7760;BME280;3924;48.830;9.262;2023-04-26T12:26:55;98598.53;;;14.36;48.62
7760;BME280;3924;48.830;9.262;2023-04-26T12:29:22;98604.72;;;14.50;48.17
7760;BME280;3924;48.830;9.262;2023-04-26T12:31:48;98598.88;;;14.43;48.04
7760;BME280;3924;48.830;9.262;2023-04-26T12:34:16;98597.88;;;14.31;48.10
7760;BME280;3924;48.830;9.262;2023-04-26T12:36:42;98589.34;;;14.63;47.74
7760;BME280;3924;48.830;9.262;2023-04-26T12:39:10;98580.53;;;14.92;47.13
7760;BME280;3924;48.830;9.262;2023-04-26T12:41:43;98591.28;;;14.89;47.16
7760;BME280;3924;48.830;9.262;2023-04-26T12:44:11;98588.75;;;14.35;47.87
7760;BME280;3924;48.830;9.262;2023-04-26T12:46:39;98586.88;;;14.05;48.19
7760;BME280;3924;48.830;9.262;2023-04-26T12:49:06;98575.59;;;13.89;48.30
7760;BME280;3924;48.830;9.262;2023-04-26T12:51:33;98585.38;;;13.99;48.38
7760;BME280;3924;48.830;9.262;2023-04-26T12:53:59;98586.41;;;14.11;47.74
7760;BME280;3924;48.830;9.262;2023-04-26T12:56:28;98580.06;;;14.33;47.22
7760;BME280;3924;48.830;9.262;2023-04-26T12:58:54;98585.84;;;14.40;47.30
7760;BME280;3924;48.830;9.262;2023-04-26T13:01:21;98581.63;;;14.74;46.85
7760;BME280;3924;48.830;9.262;2023-04-26T13:03:49;98577.13;;;15.47;45.62
7760;BME280;3924;48.830;9.262;2023-04-26T13:06:16;98575.84;;;15.36;45.53
7760;BME280;3924;48.830;9.262;2023-04-26T13:08:43;98574.75;;;15.20;45.72
7760;BME280;3924;48.830;9.262;2023-04-26T13:11:09;98580.06;;;15.08;45.86
7760;BME280;3924;48.830;9.262;2023-04-26T13:13:36;98573.16;;;14.93;46.15
7760;BME280;3924;48.830;9.262;2023-04-26T13:16:10;98577.13;;;14.61;46.71
7760;BME280;3924;48.830;9.262;2023-04-26T13:18:39;98575.75;;;14.41;46.75
7760;BME280;3924;48.830;9.262;2023-04-26T13:21:05;98589.69;;;14.31;46.77
7760;BME280;3924;48.830;9.262;2023-04-26T13:23:32;98572.47;;;14.61;46.36
7760;BME280;3924;48.830;9.262;2023-04-26T13:25:58;98572.34;;;14.84;45.94
7760;BME280;3924;48.830;9.262;2023-04-26T13:28:25;98564.97;;;15.19;45.34
7760;BME280;3924;48.830;9.262;2023-04-26T13:30:51;98558.97;;;15.51;44.83
7760;BME280;3924;48.830;9.262;2023-04-26T13:33:18;98568.00;;;15.09;45.15
7760;BME280;3924;48.830;9.262;2023-04-26T13:35:47;98567.13;;;14.47;46.41
7760;BME280;3924;48.830;9.262;2023-04-26T13:38:13;98565.81;;;14.36;46.55
7760;BME280;3924;48.830;9.262;2023-04-26T13:40:41;98564.78;;;14.72;46.00
7760;BME280;3924;48.830;9.262;2023-04-26T13:43:08;98564.97;;;15.19;45.00
7760;BME280;3924;48.830;9.262;2023-04-26T13:45:35;98563.94;;;15.49;44.48
7760;BME280;3924;48.830;9.262;2023-04-26T13:48:02;98562.44;;;15.86;43.75
7760;BME280;3924;48.830;9.262;2023-04-26T13:50:29;98554.75;;;15.80;43.63
7760;BME280;3924;48.830;9.262;2023-04-26T13:52:56;98557.59;;;15.83;43.86
7760;BME280;3924;48.830;9.262;2023-04-26T13:55:23;98560.84;;;15.77;43.85
7760;BME280;3924;48.830;9.262;2023-04-26T13:57:51;98552.53;;;15.65;43.95
7760;BME280;3924;48.830;9.262;2023-04-26T14:00:19;98562.03;;;15.41;44.39